createdAt,value
2017-07-24T00:01:38.351Z,9.20
2017-07-24T00:04:05.911Z,10.60
2017-07-24T00:06:33.886Z,8.70
2017-07-24T00:09:01.407Z,10.73
2017-07-24T00:11:29.790Z,9.33
2017-07-24T00:13:57.317Z,9.80
2017-07-24T00:16:24.825Z,9.53
2017-07-24T00:18:52.401Z,9.20
2017-07-24T00:21:19.919Z,8.30
2017-07-24T00:23:47.422Z,10.40
2017-07-24T00:26:14.978Z,9.07
2017-07-24T00:28:42.491Z,9.77
2017-07-24T00:31:09.992Z,9.40
2017-07-24T00:33:37.581Z,9.93
2017-07-24T00:36:05.090Z,10.00
2017-07-24T00:38:32.645Z,9.73
2017-07-24T00:41:00.241Z,10.53
2017-07-24T00:43:27.744Z,9.90
2017-07-24T00:45:55.306Z,9.47
2017-07-24T00:48:22.802Z,9.10
2017-07-24T00:50:50.342Z,10.67
2017-07-24T00:53:17.892Z,10.10
2017-07-24T00:55:45.458Z,10.20
2017-07-24T00:58:12.963Z,10.23
2017-07-24T01:00:40.477Z,9.67
2017-07-24T01:03:08.037Z,9.40
2017-07-24T01:05:35.532Z,10.10
2017-07-24T01:08:03.025Z,9.90
2017-07-24T01:10:30.572Z,9.47
2017-07-24T01:12:58.069Z,9.60
2017-07-24T01:15:25.608Z,9.30
2017-07-24T01:17:53.391Z,10.00
2017-07-24T01:20:20.906Z,10.57
2017-07-24T01:22:48.755Z,9.90
2017-07-24T01:25:16.292Z,9.23
2017-07-24T01:27:43.789Z,9.50
2017-07-24T01:30:11.333Z,10.90
2017-07-24T01:32:38.887Z,10.03
2017-07-24T01:35:06.423Z,10.10
2017-07-24T01:37:34.009Z,9.80
2017-07-24T01:40:01.605Z,11.20
2017-07-24T01:42:29.164Z,10.20
2017-07-24T01:44:56.676Z,10.20
2017-07-24T01:47:24.182Z,10.40
2017-07-24T01:49:51.734Z,9.90
2017-07-24T01:52:19.251Z,10.53
2017-07-24T01:54:46.809Z,9.97
2017-07-24T01:57:14.377Z,10.10
2017-07-24T01:59:41.885Z,10.20
2017-07-24T02:02:10.041Z,9.57
2017-07-24T02:04:37.580Z,9.13
2017-07-24T02:07:05.166Z,10.03
2017-07-24T02:09:32.670Z,9.83
2017-07-24T02:12:00.173Z,10.73
2017-07-24T02:14:27.735Z,8.90
2017-07-24T02:16:55.235Z,11.57
2017-07-24T02:19:22.802Z,8.53
2017-07-24T02:21:51.081Z,10.60
2017-07-24T02:24:18.587Z,9.97
2017-07-24T02:26:46.142Z,9.77
2017-07-24T02:29:13.647Z,9.50
2017-07-24T02:31:41.142Z,8.57
2017-07-24T02:34:08.683Z,10.10
2017-07-24T02:36:36.238Z,9.67
2017-07-24T02:39:03.847Z,8.90
2017-07-24T02:41:31.350Z,9.77
2017-07-24T02:43:58.906Z,10.70
2017-07-24T02:46:26.412Z,9.20
2017-07-24T02:48:53.973Z,9.77
2017-07-24T02:51:21.478Z,9.67
2017-07-24T02:53:48.998Z,10.20
2017-07-24T02:56:16.542Z,8.97
2017-07-24T02:58:44.062Z,10.10
2017-07-24T03:01:11.618Z,9.90
2017-07-24T03:03:39.126Z,10.03
2017-07-24T03:06:06.633Z,10.50
2017-07-24T03:08:34.188Z,10.67
2017-07-24T03:11:01.731Z,10.40
2017-07-24T03:13:32.079Z,10.13
2017-07-24T03:15:59.616Z,9.87
2017-07-24T03:18:27.129Z,10.57
2017-07-24T03:20:54.682Z,10.80
2017-07-24T03:23:22.189Z,10.73
2017-07-24T03:25:49.714Z,10.43
2017-07-24T03:28:17.278Z,10.50
2017-07-24T03:30:44.794Z,10.20
2017-07-24T03:33:13.087Z,10.60
2017-07-24T03:35:40.681Z,11.27
2017-07-24T03:38:08.187Z,9.20
2017-07-24T03:40:35.689Z,9.87
2017-07-24T03:43:03.248Z,9.43
2017-07-24T03:45:30.761Z,9.47
2017-07-24T03:47:58.282Z,10.70
2017-07-24T03:50:25.838Z,11.60
2017-07-24T03:52:53.369Z,12.23
2017-07-24T03:55:20.865Z,9.30
2017-07-24T03:57:49.181Z,9.63
2017-07-24T04:00:16.709Z,10.90
2017-07-24T04:02:44.232Z,10.40
2017-07-24T04:05:12.018Z,9.70
2017-07-24T04:07:40.048Z,11.23
2017-07-24T04:10:07.593Z,9.60
2017-07-24T04:12:35.093Z,9.87
2017-07-24T04:15:02.649Z,10.20
2017-07-24T04:17:30.169Z,10.60
2017-07-24T04:19:57.672Z,11.20
2017-07-24T04:22:25.224Z,10.70
2017-07-24T04:24:52.733Z,11.27
2017-07-24T04:27:20.237Z,10.13
2017-07-24T04:29:47.781Z,11.80
2017-07-24T04:32:15.341Z,57.93
2017-07-24T04:34:42.916Z,14.30
2017-07-24T04:37:10.426Z,10.70
2017-07-24T04:39:37.932Z,10.80
2017-07-24T04:42:05.482Z,9.87
2017-07-24T04:44:33.277Z,10.97
2017-07-24T04:47:00.785Z,12.40
2017-07-24T04:49:28.376Z,11.50
2017-07-24T04:51:55.896Z,11.70
2017-07-24T04:54:23.405Z,10.67
2017-07-24T04:56:51.006Z,10.43
2017-07-24T04:59:18.561Z,12.87
2017-07-24T05:01:46.202Z,11.03
2017-07-24T05:04:13.757Z,11.07
2017-07-24T05:06:41.289Z,11.67
2017-07-24T05:09:09.137Z,12.00
2017-07-24T05:11:36.654Z,12.10
2017-07-24T05:14:04.181Z,12.20
2017-07-24T05:16:31.730Z,10.70
2017-07-24T05:19:00.001Z,11.20
2017-07-24T05:21:27.576Z,11.50
2017-07-24T05:23:55.107Z,11.60
2017-07-24T05:26:22.601Z,12.77
2017-07-24T05:28:50.237Z,11.63
2017-07-24T05:31:17.800Z,11.87
2017-07-24T05:33:45.561Z,11.33
2017-07-24T05:36:13.891Z,12.00
2017-07-24T05:38:41.407Z,11.70
2017-07-24T05:41:08.960Z,11.40
2017-07-24T05:43:36.519Z,11.20
2017-07-24T05:46:04.094Z,11.97
2017-07-24T05:48:31.752Z,12.23
2017-07-24T05:50:59.510Z,10.63
2017-07-24T05:53:27.133Z,12.47
2017-07-24T05:55:54.682Z,12.43
2017-07-24T05:58:23.314Z,10.40
2017-07-24T06:00:50.899Z,11.40
2017-07-24T06:03:18.512Z,12.37
2017-07-24T06:05:46.066Z,11.33
2017-07-24T06:08:13.685Z,11.50
2017-07-24T06:10:41.575Z,12.20
2017-07-24T06:13:09.638Z,12.50
2017-07-24T06:15:37.235Z,12.00
2017-07-24T06:18:04.869Z,13.07
2017-07-24T06:20:32.620Z,12.57
2017-07-24T06:23:00.385Z,12.70
2017-07-24T06:25:28.044Z,11.80
2017-07-24T06:27:55.599Z,11.87
2017-07-24T06:30:27.742Z,12.90
2017-07-24T06:33:01.871Z,11.73
2017-07-24T06:35:35.848Z,12.13
2017-07-24T06:41:12.998Z,13.43
2017-07-24T06:47:00.485Z,12.50
2017-07-24T06:49:28.299Z,13.00
2017-07-24T06:52:33.335Z,12.23
2017-07-24T06:55:15.878Z,11.40
2017-07-24T06:57:50.843Z,13.70
2017-07-24T07:00:54.916Z,13.07
2017-07-24T07:03:24.429Z,12.83
2017-07-24T07:05:55.109Z,13.87
2017-07-24T07:08:26.624Z,12.63
2017-07-24T07:11:03.902Z,12.33
2017-07-24T07:13:54.182Z,12.70
2017-07-24T07:16:56.323Z,12.83
2017-07-24T07:19:34.544Z,12.53
2017-07-24T07:22:07.491Z,12.07
2017-07-24T07:24:42.983Z,12.07
2017-07-24T07:27:16.852Z,12.07
2017-07-24T07:30:06.622Z,12.47
2017-07-24T07:32:38.417Z,13.33
2017-07-24T07:37:49.791Z,12.83
2017-07-24T07:40:32.385Z,13.87
2017-07-24T07:43:02.406Z,12.13
2017-07-24T08:11:30.077Z,12.83
2017-07-24T08:13:58.688Z,13.67
2017-07-24T08:16:29.933Z,14.10
2017-07-24T08:19:02.192Z,12.57
2017-07-24T08:21:31.513Z,11.57
2017-07-24T08:24:00.357Z,12.77
2017-07-24T08:27:03.200Z,12.67
2017-07-24T08:29:33.420Z,12.67
2017-07-24T08:32:17.647Z,12.87
2017-07-24T08:34:53.426Z,13.03
2017-07-24T08:37:56.765Z,13.23
2017-07-24T08:40:30.278Z,14.20
2017-07-24T08:46:10.119Z,13.10
2017-07-24T08:48:43.668Z,13.07
2017-07-24T08:54:40.477Z,13.40
2017-07-24T08:57:08.559Z,12.97
2017-07-24T08:59:39.488Z,13.37
2017-07-24T09:02:07.454Z,13.10
2017-07-24T09:04:35.334Z,12.03
2017-07-24T09:07:03.054Z,13.70
2017-07-24T09:09:31.167Z,12.70
2017-07-24T09:11:59.510Z,13.57
2017-07-24T09:14:31.412Z,12.40
2017-07-24T09:17:08.877Z,13.63
2017-07-24T09:19:38.360Z,12.97
2017-07-24T09:22:12.494Z,13.03
2017-07-24T09:24:49.178Z,12.57
2017-07-24T09:27:16.855Z,12.83
2017-07-24T09:29:44.577Z,14.17
2017-07-24T09:32:12.295Z,13.40
2017-07-24T09:34:40.951Z,12.10
2017-07-24T09:37:08.594Z,12.63
2017-07-24T09:39:36.220Z,12.27
2017-07-24T09:42:04.353Z,14.13
2017-07-24T09:44:32.408Z,12.53
2017-07-24T09:47:00.088Z,12.13
2017-07-24T09:49:28.131Z,13.60
2017-07-24T09:51:56.235Z,12.10
2017-07-24T09:54:27.507Z,11.20
2017-07-24T09:56:56.211Z,13.37
2017-07-24T09:59:24.168Z,12.87
2017-07-24T10:01:58.385Z,12.23
2017-07-24T10:04:28.206Z,14.17
2017-07-24T10:06:58.910Z,13.13
2017-07-24T10:09:26.725Z,11.73
2017-07-24T10:11:55.832Z,13.87
2017-07-24T10:14:23.772Z,13.30
2017-07-24T10:16:52.653Z,12.67
2017-07-24T10:19:21.995Z,13.50
2017-07-24T10:21:49.648Z,12.73
2017-07-24T10:24:19.306Z,14.03
2017-07-24T10:26:47.243Z,13.93
2017-07-24T10:29:15.143Z,12.70
2017-07-24T10:31:43.443Z,13.70
2017-07-24T10:34:11.411Z,14.63
2017-07-24T10:36:39.493Z,12.40
2017-07-24T10:39:07.750Z,13.00
2017-07-24T10:41:35.718Z,12.57
2017-07-24T10:44:03.278Z,13.50
2017-07-24T10:46:36.317Z,13.10
2017-07-24T10:49:05.107Z,11.90
2017-07-24T10:51:33.568Z,12.90
2017-07-24T10:54:01.329Z,13.40
2017-07-24T10:56:31.144Z,13.80
2017-07-24T10:58:59.733Z,12.67
2017-07-24T11:01:28.259Z,13.03
2017-07-24T11:03:56.177Z,13.33
2017-07-24T11:06:24.868Z,12.73
2017-07-24T11:08:53.375Z,14.43
2017-07-24T11:11:23.082Z,14.10
2017-07-24T11:13:52.046Z,14.00
2017-07-24T11:16:20.461Z,13.53
2017-07-24T11:18:48.542Z,13.10
2017-07-24T11:21:16.763Z,12.50
2017-07-24T11:23:45.390Z,14.17
2017-07-24T11:26:14.030Z,14.43
2017-07-24T11:28:41.639Z,13.10
2017-07-24T11:31:11.274Z,13.53
2017-07-24T11:33:39.513Z,12.70
2017-07-24T11:36:08.507Z,11.90
2017-07-24T11:38:36.285Z,12.60
2017-07-24T11:41:08.543Z,12.93
2017-07-24T11:43:36.980Z,13.13
2017-07-24T11:46:11.343Z,13.93
2017-07-24T11:51:48.134Z,13.10
2017-07-24T11:54:15.906Z,12.60
2017-07-24T11:56:43.474Z,12.57
2017-07-24T11:59:10.999Z,13.50
2017-07-24T12:01:39.584Z,12.00
2017-07-24T12:04:07.169Z,12.40
2017-07-24T12:06:34.717Z,13.60
2017-07-24T12:09:04.853Z,12.63
2017-07-24T12:11:33.427Z,12.40
2017-07-24T12:14:01.870Z,12.80
2017-07-24T12:16:29.571Z,13.17
2017-07-24T12:18:57.272Z,13.17
2017-07-24T12:21:24.837Z,13.63
2017-07-24T12:23:52.487Z,11.43
2017-07-24T12:26:20.049Z,12.90
2017-07-24T12:28:47.600Z,12.20
2017-07-24T12:31:15.285Z,12.20
2017-07-24T12:33:42.863Z,11.57
2017-07-24T12:36:11.279Z,12.33
2017-07-24T12:38:47.157Z,12.77
2017-07-24T12:44:14.822Z,12.47
2017-07-24T12:46:43.887Z,13.70
2017-07-24T12:49:11.794Z,13.40
2017-07-24T12:51:39.580Z,12.93
2017-07-24T12:54:07.471Z,11.33
2017-07-24T12:56:35.143Z,11.90
2017-07-24T12:59:02.798Z,12.83
2017-07-24T13:01:32.006Z,10.87
2017-07-24T13:03:59.613Z,10.93
2017-07-24T13:06:27.221Z,13.17
2017-07-24T13:08:55.225Z,11.83
2017-07-24T13:11:23.069Z,11.90
2017-07-24T13:13:50.643Z,11.20
2017-07-24T13:16:18.229Z,11.50
2017-07-24T13:18:45.855Z,12.27
2017-07-24T13:21:13.529Z,11.60
2017-07-24T13:23:41.133Z,12.03
2017-07-24T13:26:08.821Z,10.83
2017-07-24T13:28:36.614Z,11.07
2017-07-24T13:31:05.226Z,12.43
2017-07-24T13:33:52.002Z,12.80
2017-07-24T13:36:39.460Z,13.10
2017-07-24T13:39:07.058Z,12.50
2017-07-24T13:41:34.855Z,11.90
2017-07-24T13:44:02.718Z,11.03
2017-07-24T13:46:30.589Z,11.80
2017-07-24T13:48:59.513Z,13.50
2017-07-24T13:51:27.270Z,11.90
2017-07-24T13:53:55.127Z,12.33
2017-07-24T13:56:25.075Z,12.23
2017-07-24T13:58:54.173Z,11.47
2017-07-24T14:01:21.933Z,13.53
2017-07-24T14:03:50.115Z,12.80
2017-07-24T14:06:18.237Z,12.50
2017-07-24T14:08:45.858Z,12.37
2017-07-24T14:11:16.886Z,14.30
2017-07-24T14:13:44.553Z,12.80
2017-07-24T14:16:12.777Z,12.33
2017-07-24T14:18:40.931Z,13.13
2017-07-24T14:21:08.739Z,11.40
2017-07-24T14:23:36.517Z,13.17
2017-07-24T14:26:04.326Z,13.43
2017-07-24T14:28:34.647Z,14.17
2017-07-24T14:31:02.659Z,13.90
2017-07-24T14:33:30.588Z,14.03
2017-07-24T14:35:58.187Z,14.00
2017-07-24T14:38:25.818Z,13.20
2017-07-24T14:40:53.453Z,14.87
2017-07-24T14:43:21.013Z,13.50
2017-07-24T14:48:42.966Z,13.07
2017-07-24T14:53:07.842Z,14.70
2017-07-24T14:58:26.110Z,14.43
2017-07-24T15:00:53.637Z,15.00
2017-07-24T15:03:21.321Z,14.07
2017-07-24T15:05:48.950Z,14.40
2017-07-24T15:08:16.739Z,13.70
2017-07-24T15:12:05.660Z,14.23
2017-07-24T15:14:33.190Z,14.30
2017-07-24T15:17:00.776Z,14.60
2017-07-24T15:19:28.412Z,13.20
2017-07-24T15:21:56.010Z,12.40
2017-07-24T15:24:23.554Z,14.60
2017-07-24T15:26:51.177Z,14.30
2017-07-24T15:29:18.794Z,13.73
2017-07-24T15:31:46.374Z,12.97
2017-07-24T15:34:14.699Z,13.80
2017-07-24T15:36:42.259Z,14.13
2017-07-24T15:39:09.930Z,13.33
2017-07-24T15:41:37.556Z,13.53
2017-07-24T15:44:05.177Z,14.00
2017-07-24T15:46:32.762Z,12.80
2017-07-24T15:49:00.333Z,12.20
2017-07-24T15:51:27.881Z,13.13
2017-07-24T15:53:55.451Z,12.93
2017-07-24T15:56:23.092Z,13.67
2017-07-24T15:58:50.740Z,14.03
2017-07-24T16:01:18.315Z,14.23
2017-07-24T16:03:45.867Z,13.83
2017-07-24T16:06:13.465Z,13.30
2017-07-24T16:08:41.031Z,12.10
2017-07-24T16:11:08.590Z,13.30
2017-07-24T16:13:36.225Z,12.80
2017-07-24T16:16:03.726Z,12.90
2017-07-24T16:18:31.237Z,11.77
2017-07-24T16:20:58.898Z,12.77
2017-07-24T16:23:26.523Z,12.43
2017-07-24T16:25:54.073Z,13.57
2017-07-24T16:28:21.585Z,12.13
2017-07-24T16:30:49.149Z,12.70
2017-07-24T16:33:16.662Z,13.03
2017-07-24T16:35:44.222Z,12.33
2017-07-24T16:38:11.774Z,12.00
2017-07-24T16:40:39.282Z,12.43
2017-07-24T16:43:06.842Z,10.97
2017-07-24T16:45:34.345Z,11.83
2017-07-24T16:48:01.878Z,11.80
2017-07-24T16:50:29.472Z,12.60
2017-07-24T16:52:57.022Z,11.40
2017-07-24T16:55:24.536Z,11.97
2017-07-24T16:57:52.096Z,11.73
2017-07-24T17:00:19.721Z,12.33
2017-07-24T17:02:47.256Z,11.93
2017-07-24T17:05:14.798Z,13.23
2017-07-24T17:07:42.305Z,12.43
2017-07-24T17:10:09.857Z,10.53
2017-07-24T17:12:37.414Z,11.07
2017-07-24T17:15:04.926Z,11.73
2017-07-24T17:17:32.441Z,13.47
2017-07-24T17:19:59.996Z,13.23
2017-07-24T17:22:27.505Z,10.90
2017-07-24T17:24:55.106Z,11.73
2017-07-24T17:27:22.613Z,13.33
2017-07-24T17:29:50.192Z,15.77
2017-07-24T17:32:17.761Z,13.33
2017-07-24T17:34:45.265Z,13.80
2017-07-24T17:37:12.814Z,19.90
2017-07-24T17:39:40.379Z,17.73
2017-07-24T17:42:07.892Z,13.37
2017-07-24T17:44:35.390Z,16.43
2017-07-24T17:47:02.947Z,14.17
2017-07-24T17:49:30.450Z,15.60
2017-07-24T17:51:57.964Z,14.93
2017-07-24T17:54:25.509Z,15.00
2017-07-24T17:56:53.058Z,13.40
2017-07-24T17:59:20.629Z,14.73
2017-07-24T18:01:48.173Z,16.33
2017-07-24T18:04:15.677Z,16.60
2017-07-24T18:06:43.233Z,16.40
2017-07-24T18:09:10.749Z,15.10
2017-07-24T18:11:38.259Z,17.23
2017-07-24T18:14:05.807Z,17.10
2017-07-24T18:16:33.330Z,19.60
2017-07-24T18:19:00.844Z,15.27
2017-07-24T18:21:28.395Z,18.60
2017-07-24T18:23:55.915Z,15.47
2017-07-24T18:26:23.512Z,15.80
2017-07-24T18:28:51.016Z,17.90
2017-07-24T18:31:18.562Z,16.30
2017-07-24T18:33:46.118Z,16.27
2017-07-24T18:36:13.680Z,15.97
2017-07-24T18:38:41.199Z,15.87
2017-07-24T18:41:08.701Z,16.93
2017-07-24T18:43:36.275Z,17.13
2017-07-24T18:46:03.783Z,16.50
2017-07-24T18:48:31.289Z,16.50
2017-07-24T18:50:58.829Z,14.73
2017-07-24T18:53:26.338Z,16.40
2017-07-24T18:55:53.916Z,15.00
2017-07-24T18:58:21.448Z,15.20
2017-07-24T19:00:48.959Z,16.70
2017-07-24T19:03:16.521Z,16.90
2017-07-24T19:05:44.042Z,16.53
2017-07-24T19:08:11.605Z,16.10
2017-07-24T19:10:39.109Z,19.07
2017-07-24T19:13:06.617Z,15.97
2017-07-24T19:15:34.201Z,16.43
2017-07-24T19:18:01.709Z,16.50
2017-07-24T19:20:29.225Z,14.63
2017-07-24T19:22:56.785Z,15.83
2017-07-24T19:25:24.297Z,16.37
2017-07-24T19:27:51.843Z,18.20
2017-07-24T19:30:19.396Z,16.63
2017-07-24T19:32:46.974Z,18.90
2017-07-24T19:35:14.474Z,18.43
2017-07-24T19:37:41.989Z,17.13
2017-07-24T19:40:09.573Z,20.00
2017-07-24T19:42:37.252Z,19.00
2017-07-24T19:45:04.917Z,19.60
2017-07-24T19:47:32.416Z,18.33
2017-07-24T19:49:59.970Z,18.50
2017-07-24T19:52:27.485Z,19.03
2017-07-24T19:54:55.046Z,19.70
2017-07-24T19:57:22.549Z,17.80
2017-07-24T19:59:50.125Z,19.07
2017-07-24T20:02:17.668Z,16.70
2017-07-24T20:04:45.214Z,19.70
2017-07-24T20:07:12.721Z,20.20
2017-07-24T20:09:40.233Z,19.67
2017-07-24T20:12:07.806Z,20.47
2017-07-24T20:14:35.318Z,19.97
2017-07-24T20:17:02.821Z,18.73
2017-07-24T20:19:30.386Z,19.37
2017-07-24T20:21:57.895Z,18.93
2017-07-24T20:24:25.401Z,17.40
2017-07-24T20:26:53.013Z,19.70
2017-07-24T20:29:20.570Z,18.67
2017-07-24T20:31:48.093Z,19.97
2017-07-24T20:34:15.685Z,18.87
2017-07-24T20:36:43.248Z,20.03
2017-07-24T20:39:10.762Z,20.03
2017-07-24T20:41:38.265Z,18.80
2017-07-24T20:44:05.823Z,18.03
2017-07-24T20:46:33.330Z,19.13
2017-07-24T20:49:00.843Z,20.60
2017-07-24T20:51:28.399Z,18.67
2017-07-24T20:53:55.906Z,20.10
2017-07-24T20:56:23.474Z,18.47
2017-07-24T20:58:50.986Z,21.50
2017-07-24T21:01:18.533Z,19.20
2017-07-24T21:03:46.144Z,21.00
2017-07-24T21:06:13.687Z,21.03
2017-07-24T21:08:41.208Z,19.97
2017-07-24T21:11:08.765Z,21.37
2017-07-24T21:13:36.269Z,20.37
2017-07-24T21:16:03.787Z,21.07
2017-07-24T21:18:31.340Z,18.67
2017-07-24T21:20:58.853Z,20.80
2017-07-24T21:23:26.373Z,20.50
2017-07-24T21:25:53.938Z,20.70
2017-07-24T21:28:21.501Z,19.93
2017-07-24T21:30:49.052Z,21.27
2017-07-24T21:33:16.596Z,19.50
2017-07-24T21:35:44.105Z,21.90
2017-07-24T21:38:11.647Z,21.90
2017-07-24T21:40:39.160Z,19.93
2017-07-24T21:43:06.723Z,21.07
2017-07-24T21:48:08.085Z,20.80
2017-07-24T21:50:35.617Z,21.37
2017-07-24T21:53:03.168Z,19.87
2017-07-24T21:55:30.677Z,20.60
2017-07-24T21:57:58.190Z,21.50
2017-07-24T22:00:25.745Z,21.07
2017-07-24T22:02:53.304Z,20.30
2017-07-24T22:05:20.857Z,19.70
2017-07-24T22:07:48.406Z,20.27
2017-07-24T22:10:16.002Z,19.80
2017-07-24T22:12:43.549Z,19.83
2017-07-24T22:15:11.061Z,20.90
2017-07-24T22:17:38.564Z,19.40
2017-07-24T22:20:06.149Z,21.37
2017-07-24T22:22:33.650Z,19.50
2017-07-24T22:25:01.200Z,22.90
2017-07-24T22:27:28.744Z,23.00
2017-07-24T22:29:56.294Z,21.60
2017-07-24T22:32:23.801Z,20.47
2017-07-24T22:34:51.305Z,20.97
2017-07-24T22:37:18.908Z,22.10
2017-07-24T22:39:46.412Z,20.37
2017-07-24T22:42:13.920Z,20.60
2017-07-24T22:44:41.471Z,22.63
2017-07-24T22:47:08.988Z,20.73
2017-07-24T22:49:36.547Z,20.73
2017-07-24T22:52:04.069Z,20.97
2017-07-24T22:54:31.586Z,21.17
2017-07-24T22:56:59.161Z,21.43
2017-07-24T22:59:26.666Z,21.17
2017-07-24T23:01:54.199Z,21.43
2017-07-24T23:04:21.746Z,20.77
2017-07-24T23:06:49.377Z,20.40
2017-07-24T23:09:16.880Z,22.20
2017-07-24T23:11:44.386Z,20.67
2017-07-24T23:14:11.937Z,20.73
2017-07-24T23:16:39.445Z,23.30
2017-07-24T23:19:06.991Z,21.30
2017-07-24T23:21:34.566Z,19.70
2017-07-24T23:24:02.089Z,20.63
2017-07-24T23:26:29.619Z,19.47
2017-07-24T23:28:57.160Z,19.40
2017-07-24T23:31:24.705Z,19.50
2017-07-24T23:33:52.265Z,19.20
2017-07-24T23:36:19.769Z,20.50
2017-07-24T23:38:47.272Z,19.40
2017-07-24T23:41:14.827Z,20.03
2017-07-24T23:43:42.328Z,18.40
2017-07-24T23:46:09.852Z,19.97
2017-07-24T23:48:37.401Z,18.90
2017-07-24T23:51:04.901Z,19.17
2017-07-24T23:53:32.404Z,19.30
2017-07-24T23:55:59.957Z,19.80
2017-07-24T23:58:27.461Z,18.40
